Hollis, Oklahoma
Current Conditions -  °F | °C
As of 1:53 AM on Sunday 26 Oct 2014 (Local Time) from KCDS Reporting Station
Clear Clear  
Wind Chill: 67°   Ceiling: Unl
Heat Index: 67°   Visibility: 10mi
Dew Point: 49°   Wind: 9mph
Humidity: 52%   Direction: 190°S
Pressure: 29.99"   Gusts: NA
Location:  34.69°N, 99.91°W
Report Text: KCDS 260653Z AUTO 19008KT 10SM CLR 19/09 A2999 RMK AO2 SLP129 T01940094 $
Loading
Personal Weather Stations






























Interactive Weather Map New forecast layout! Learn more

10-Day Weather Forecast

Advertisements
Track Severe Weather on mobile